sensor_id;sensor_type;location;lat;lon;timestamp;P1;durP1;ratioP1;P2;durP2;ratioP2
18857;SDS011;9558;50.178;8.370;2023-12-20T00:02:46;5.43;;;2.88;;
18857;SDS011;9558;50.178;8.370;2023-12-20T00:05:33;5.53;;;2.10;;
18857;SDS011;9558;50.178;8.370;2023-12-20T00:08:21;2.22;;;1.27;;
18857;SDS011;9558;50.178;8.370;2023-12-20T00:11:09;5.40;;;2.38;;
18857;SDS011;9558;50.178;8.370;2023-12-20T00:13:55;4.80;;;2.13;;
18857;SDS011;9558;50.178;8.370;2023-12-20T00:16:42;5.18;;;1.77;;
18857;SDS011;9558;50.178;8.370;2023-12-20T00:19:29;5.30;;;2.58;;
18857;SDS011;9558;50.178;8.370;2023-12-20T00:22:16;4.40;;;2.28;;
18857;SDS011;9558;50.178;8.370;2023-12-20T00:25:02;4.32;;;2.20;;
18857;SDS011;9558;50.178;8.370;2023-12-20T00:27:51;4.53;;;2.75;;
18857;SDS011;9558;50.178;8.370;2023-12-20T00:30:38;5.40;;;2.55;;
18857;SDS011;9558;50.178;8.370;2023-12-20T00:33:25;3.17;;;1.88;;
18857;SDS011;9558;50.178;8.370;2023-12-20T00:36:11;4.47;;;1.27;;
18857;SDS011;9558;50.178;8.370;2023-12-20T00:41:45;4.07;;;1.90;;
18857;SDS011;9558;50.178;8.370;2023-12-20T00:44:33;2.08;;;1.20;;
18857;SDS011;9558;50.178;8.370;2023-12-20T00:47:20;3.55;;;1.50;;
18857;SDS011;9558;50.178;8.370;2023-12-20T00:50:07;2.72;;;1.27;;
18857;SDS011;9558;50.178;8.370;2023-12-20T00:52:54;3.40;;;2.10;;
18857;SDS011;9558;50.178;8.370;2023-12-20T00:55:28;1.55;;;1.05;;
18857;SDS011;9558;50.178;8.370;2023-12-20T00:58:15;3.17;;;1.60;;
18857;SDS011;9558;50.178;8.370;2023-12-20T01:01:04;3.45;;;1.38;;
18857;SDS011;9558;50.178;8.370;2023-12-20T01:03:50;4.03;;;1.30;;
18857;SDS011;9558;50.178;8.370;2023-12-20T01:06:38;3.38;;;1.70;;
18857;SDS011;9558;50.178;8.370;2023-12-20T01:09:24;3.45;;;1.27;;
18857;SDS011;9558;50.178;8.370;2023-12-20T01:12:11;2.90;;;1.55;;
18857;SDS011;9558;50.178;8.370;2023-12-20T01:14:58;3.42;;;1.27;;
18857;SDS011;9558;50.178;8.370;2023-12-20T01:17:46;2.05;;;1.25;;
18857;SDS011;9558;50.178;8.370;2023-12-20T01:20:34;1.67;;;1.27;;
18857;SDS011;9558;50.178;8.370;2023-12-20T01:23:21;2.08;;;1.17;;
18857;SDS011;9558;50.178;8.370;2023-12-20T01:26:08;2.15;;;1.27;;
18857;SDS011;9558;50.178;8.370;2023-12-20T01:28:55;2.75;;;1.45;;
18857;SDS011;9558;50.178;8.370;2023-12-20T01:31:42;2.75;;;1.30;;
18857;SDS011;9558;50.178;8.370;2023-12-20T01:34:30;5.50;;;1.88;;
18857;SDS011;9558;50.178;8.370;2023-12-20T01:37:16;5.13;;;1.92;;
18857;SDS011;9558;50.178;8.370;2023-12-20T01:40:04;2.05;;;1.38;;
18857;SDS011;9558;50.178;8.370;2023-12-20T01:42:57;6.78;;;2.08;;
18857;SDS011;9558;50.178;8.370;2023-12-20T01:45:45;6.40;;;2.53;;
18857;SDS011;9558;50.178;8.370;2023-12-20T01:48:33;5.70;;;2.55;;
18857;SDS011;9558;50.178;8.370;2023-12-20T01:51:21;2.05;;;1.38;;
18857;SDS011;9558;50.178;8.370;2023-12-20T01:54:08;2.65;;;1.13;;
18857;SDS011;9558;50.178;8.370;2023-12-20T01:56:55;3.88;;;2.22;;
18857;SDS011;9558;50.178;8.370;2023-12-20T02:02:30;2.63;;;1.40;;
18857;SDS011;9558;50.178;8.370;2023-12-20T02:05:17;1.13;;;0.70;;
18857;SDS011;9558;50.178;8.370;2023-12-20T02:10:52;2.92;;;1.13;;
18857;SDS011;9558;50.178;8.370;2023-12-20T02:13:39;3.92;;;1.25;;
18857;SDS011;9558;50.178;8.370;2023-12-20T02:16:26;2.28;;;1.55;;
18857;SDS011;9558;50.178;8.370;2023-12-20T02:19:13;2.67;;;1.30;;
18857;SDS011;9558;50.178;8.370;2023-12-20T02:22:08;1.60;;;0.98;;
18857;SDS011;9558;50.178;8.370;2023-12-20T02:24:55;2.83;;;1.17;;
18857;SDS011;9558;50.178;8.370;2023-12-20T02:27:42;0.80;;;0.65;;
18857;SDS011;9558;50.178;8.370;2023-12-20T02:30:29;1.05;;;0.93;;
18857;SDS011;9558;50.178;8.370;2023-12-20T02:36:03;1.98;;;1.15;;
18857;SDS011;9558;50.178;8.370;2023-12-20T02:38:51;2.80;;;1.50;;
18857;SDS011;9558;50.178;8.370;2023-12-20T02:41:38;1.73;;;0.95;;
18857;SDS011;9558;50.178;8.370;2023-12-20T02:44:24;2.72;;;1.40;;
18857;SDS011;9558;50.178;8.370;2023-12-20T02:47:11;3.58;;;1.85;;
18857;SDS011;9558;50.178;8.370;2023-12-20T02:49:58;3.25;;;1.30;;
18857;SDS011;9558;50.178;8.370;2023-12-20T02:55:30;2.72;;;1.60;;
18857;SDS011;9558;50.178;8.370;2023-12-20T02:58:17;3.08;;;1.83;;
18857;SDS011;9558;50.178;8.370;2023-12-20T03:03:50;2.58;;;1.55;;
18857;SDS011;9558;50.178;8.370;2023-12-20T03:06:37;2.65;;;1.58;;
18857;SDS011;9558;50.178;8.370;2023-12-20T03:09:23;3.15;;;1.42;;
18857;SDS011;9558;50.178;8.370;2023-12-20T03:12:12;3.85;;;2.08;;
18857;SDS011;9558;50.178;8.370;2023-12-20T03:14:58;3.67;;;1.98;;
18857;SDS011;9558;50.178;8.370;2023-12-20T03:17:45;2.80;;;1.80;;
18857;SDS011;9558;50.178;8.370;2023-12-20T03:20:32;2.50;;;1.33;;
18857;SDS011;9558;50.178;8.370;2023-12-20T03:23:19;2.33;;;1.27;;
18857;SDS011;9558;50.178;8.370;2023-12-20T03:26:06;5.63;;;1.65;;
18857;SDS011;9558;50.178;8.370;2023-12-20T03:28:55;2.22;;;0.85;;
18857;SDS011;9558;50.178;8.370;2023-12-20T03:31:41;3.13;;;1.00;;
18857;SDS011;9558;50.178;8.370;2023-12-20T03:34:28;1.55;;;0.90;;
18857;SDS011;9558;50.178;8.370;2023-12-20T03:37:15;1.10;;;0.70;;
18857;SDS011;9558;50.178;8.370;2023-12-20T03:40:02;0.45;;;0.40;;
18857;SDS011;9558;50.178;8.370;2023-12-20T03:42:49;0.77;;;0.60;;
18857;SDS011;9558;50.178;8.370;2023-12-20T03:45:37;0.25;;;0.25;;
18857;SDS011;9558;50.178;8.370;2023-12-20T03:48:24;0.70;;;0.45;;
18857;SDS011;9558;50.178;8.370;2023-12-20T03:51:11;0.47;;;0.40;;
18857;SDS011;9558;50.178;8.370;2023-12-20T03:56:44;0.55;;;0.38;;
18857;SDS011;9558;50.178;8.370;2023-12-20T03:59:34;0.80;;;0.50;;
18857;SDS011;9558;50.178;8.370;2023-12-20T04:02:23;0.82;;;0.68;;
18857;SDS011;9558;50.178;8.370;2023-12-20T04:05:09;1.35;;;0.80;;
18857;SDS011;9558;50.178;8.370;2023-12-20T04:07:57;0.52;;;0.43;;
18857;SDS011;9558;50.178;8.370;2023-12-20T04:10:46;1.38;;;0.70;;
18857;SDS011;9558;50.178;8.370;2023-12-20T04:16:19;6.97;;;0.82;;
18857;SDS011;9558;50.178;8.370;2023-12-20T04:21:54;1.05;;;0.70;;
18857;SDS011;9558;50.178;8.370;2023-12-20T04:24:41;1.05;;;0.95;;
18857;SDS011;9558;50.178;8.370;2023-12-20T04:27:28;4.78;;;2.05;;
18857;SDS011;9558;50.178;8.370;2023-12-20T04:30:15;1.90;;;1.02;;
18857;SDS011;9558;50.178;8.370;2023-12-20T04:33:01;5.72;;;1.02;;
18857;SDS011;9558;50.178;8.370;2023-12-20T04:35:50;2.58;;;1.30;;
18857;SDS011;9558;50.178;8.370;2023-12-20T04:38:37;2.40;;;1.48;;
18857;SDS011;9558;50.178;8.370;2023-12-20T04:41:23;2.50;;;1.63;;
18857;SDS011;9558;50.178;8.370;2023-12-20T04:44:10;1.83;;;1.27;;
18857;SDS011;9558;50.178;8.370;2023-12-20T04:46:57;2.03;;;1.40;;
18857;SDS011;9558;50.178;8.370;2023-12-20T04:49:44;3.22;;;1.77;;
18857;SDS011;9558;50.178;8.370;2023-12-20T04:52:32;2.97;;;1.52;;
18857;SDS011;9558;50.178;8.370;2023-12-20T04:55:19;2.10;;;1.77;;
18857;SDS011;9558;50.178;8.370;2023-12-20T04:58:06;7.35;;;1.30;;
18857;SDS011;9558;50.178;8.370;2023-12-20T05:03:40;1.35;;;1.10;;
18857;SDS011;9558;50.178;8.370;2023-12-20T05:09:14;1.80;;;1.10;;
18857;SDS011;9558;50.178;8.370;2023-12-20T05:12:01;1.55;;;1.02;;
18857;SDS011;9558;50.178;8.370;2023-12-20T05:14:48;1.80;;;1.15;;
18857;SDS011;9558;50.178;8.370;2023-12-20T05:17:34;5.03;;;1.02;;
18857;SDS011;9558;50.178;8.370;2023-12-20T05:20:21;10.05;;;0.73;;
18857;SDS011;9558;50.178;8.370;2023-12-20T05:23:08;13.65;;;2.75;;
18857;SDS011;9558;50.178;8.370;2023-12-20T05:25:58;23.42;;;6.47;;
18857;SDS011;9558;50.178;8.370;2023-12-20T05:28:45;7.22;;;2.53;;
18857;SDS011;9558;50.178;8.370;2023-12-20T05:31:32;2.63;;;1.42;;
18857;SDS011;9558;50.178;8.370;2023-12-20T05:37:05;9.68;;;1.02;;
18857;SDS011;9558;50.178;8.370;2023-12-20T05:39:52;4.28;;;1.27;;
18857;SDS011;9558;50.178;8.370;2023-12-20T05:42:40;9.45;;;0.80;;
18857;SDS011;9558;50.178;8.370;2023-12-20T05:45:27;3.08;;;0.88;;
18857;SDS011;9558;50.178;8.370;2023-12-20T05:48:13;9.18;;;1.40;;
18857;SDS011;9558;50.178;8.370;2023-12-20T05:51:00;4.80;;;0.75;;
18857;SDS011;9558;50.178;8.370;2023-12-20T05:53:47;2.78;;;1.00;;
18857;SDS011;9558;50.178;8.370;2023-12-20T05:56:35;0.80;;;0.60;;
18857;SDS011;9558;50.178;8.370;2023-12-20T05:59:23;3.80;;;0.55;;
18857;SDS011;9558;50.178;8.370;2023-12-20T06:02:09;2.38;;;1.05;;
18857;SDS011;9558;50.178;8.370;2023-12-20T06:04:56;4.68;;;0.93;;
18857;SDS011;9558;50.178;8.370;2023-12-20T06:07:43;2.65;;;0.47;;
18857;SDS011;9558;50.178;8.370;2023-12-20T06:10:30;4.40;;;0.57;;
18857;SDS011;9558;50.178;8.370;2023-12-20T06:13:17;7.45;;;1.10;;
18857;SDS011;9558;50.178;8.370;2023-12-20T06:16:06;8.05;;;0.95;;
18857;SDS011;9558;50.178;8.370;2023-12-20T06:18:52;6.03;;;0.80;;
18857;SDS011;9558;50.178;8.370;2023-12-20T06:21:39;4.82;;;0.80;;
18857;SDS011;9558;50.178;8.370;2023-12-20T06:24:26;7.30;;;1.20;;
18857;SDS011;9558;50.178;8.370;2023-12-20T06:27:13;0.88;;;0.50;;
18857;SDS011;9558;50.178;8.370;2023-12-20T06:30:00;0.50;;;0.32;;
18857;SDS011;9558;50.178;8.370;2023-12-20T06:32:48;5.35;;;0.77;;
18857;SDS011;9558;50.178;8.370;2023-12-20T06:35:35;1.00;;;0.60;;
18857;SDS011;9558;50.178;8.370;2023-12-20T06:38:21;4.60;;;1.50;;
18857;SDS011;9558;50.178;8.370;2023-12-20T06:41:08;6.07;;;1.13;;
18857;SDS011;9558;50.178;8.370;2023-12-20T06:43:55;8.63;;;1.50;;
18857;SDS011;9558;50.178;8.370;2023-12-20T06:46:42;2.58;;;1.45;;
18857;SDS011;9558;50.178;8.370;2023-12-20T06:49:31;2.80;;;1.25;;
18857;SDS011;9558;50.178;8.370;2023-12-20T06:52:17;2.80;;;1.05;;
18857;SDS011;9558;50.178;8.370;2023-12-20T06:55:04;0.68;;;0.68;;
18857;SDS011;9558;50.178;8.370;2023-12-20T06:57:51;0.93;;;0.70;;
18857;SDS011;9558;50.178;8.370;2023-12-20T07:00:38;1.88;;;1.17;;
18857;SDS011;9558;50.178;8.370;2023-12-20T07:03:25;1.65;;;0.80;;
18857;SDS011;9558;50.178;8.370;2023-12-20T07:06:13;2.05;;;0.75;;
18857;SDS011;9558;50.178;8.370;2023-12-20T07:09:01;3.92;;;1.02;;
18857;SDS011;9558;50.178;8.370;2023-12-20T07:11:48;2.28;;;0.80;;
18857;SDS011;9558;50.178;8.370;2023-12-20T07:14:35;3.78;;;1.10;;
18857;SDS011;9558;50.178;8.370;2023-12-20T07:17:22;6.28;;;1.15;;
18857;SDS011;9558;50.178;8.370;2023-12-20T07:20:09;7.32;;;1.48;;
18857;SDS011;9558;50.178;8.370;2023-12-20T07:22:57;3.58;;;1.08;;
18857;SDS011;9558;50.178;8.370;2023-12-20T07:25:44;4.38;;;1.48;;
18857;SDS011;9558;50.178;8.370;2023-12-20T07:28:31;5.70;;;2.58;;
18857;SDS011;9558;50.178;8.370;2023-12-20T07:31:17;6.72;;;3.25;;
18857;SDS011;9558;50.178;8.370;2023-12-20T07:34:04;2.17;;;1.20;;
18857;SDS011;9558;50.178;8.370;2023-12-20T07:36:51;5.78;;;1.20;;
18857;SDS011;9558;50.178;8.370;2023-12-20T07:39:40;8.80;;;1.95;;
18857;SDS011;9558;50.178;8.370;2023-12-20T07:42:27;3.72;;;0.90;;
18857;SDS011;9558;50.178;8.370;2023-12-20T07:45:14;4.15;;;1.00;;
18857;SDS011;9558;50.178;8.370;2023-12-20T07:48:00;3.58;;;1.15;;
18857;SDS011;9558;50.178;8.370;2023-12-20T07:50:47;2.05;;;0.68;;
18857;SDS011;9558;50.178;8.370;2023-12-20T07:53:34;2.70;;;0.85;;
18857;SDS011;9558;50.178;8.370;2023-12-20T07:56:22;2.13;;;1.00;;
18857;SDS011;9558;50.178;8.370;2023-12-20T07:59:09;1.25;;;1.00;;
18857;SDS011;9558;50.178;8.370;2023-12-20T08:04:42;2.65;;;1.30;;
18857;SDS011;9558;50.178;8.370;2023-12-20T08:07:29;5.88;;;0.80;;
18857;SDS011;9558;50.178;8.370;2023-12-20T08:10:15;8.02;;;1.40;;
18857;SDS011;9558;50.178;8.370;2023-12-20T08:13:05;1.77;;;1.30;;
18857;SDS011;9558;50.178;8.370;2023-12-20T08:15:53;1.80;;;0.93;;
18857;SDS011;9558;50.178;8.370;2023-12-20T08:18:41;3.00;;;1.50;;
18857;SDS011;9558;50.178;8.370;2023-12-20T08:21:28;3.28;;;1.40;;
18857;SDS011;9558;50.178;8.370;2023-12-20T08:27:01;2.33;;;1.45;;
18857;SDS011;9558;50.178;8.370;2023-12-20T08:32:36;1.30;;;0.88;;
18857;SDS011;9558;50.178;8.370;2023-12-20T08:35:23;3.63;;;1.10;;
18857;SDS011;9558;50.178;8.370;2023-12-20T08:38:10;7.25;;;1.48;;
18857;SDS011;9558;50.178;8.370;2023-12-20T08:40:56;2.47;;;1.05;;
18857;SDS011;9558;50.178;8.370;2023-12-20T08:43:43;3.42;;;1.08;;
18857;SDS011;9558;50.178;8.370;2023-12-20T08:46:31;3.15;;;1.33;;
18857;SDS011;9558;50.178;8.370;2023-12-20T08:49:18;2.58;;;0.95;;
18857;SDS011;9558;50.178;8.370;2023-12-20T08:52:05;2.40;;;1.20;;
18857;SDS011;9558;50.178;8.370;2023-12-20T08:54:52;4.78;;;1.15;;
18857;SDS011;9558;50.178;8.370;2023-12-20T09:00:25;0.63;;;0.60;;
18857;SDS011;9558;50.178;8.370;2023-12-20T09:03:14;3.45;;;1.25;;
18857;SDS011;9558;50.178;8.370;2023-12-20T09:06:01;4.57;;;1.48;;
18857;SDS011;9558;50.178;8.370;2023-12-20T09:08:47;8.15;;;1.23;;
18857;SDS011;9558;50.178;8.370;2023-12-20T09:11:34;10.35;;;1.33;;
18857;SDS011;9558;50.178;8.370;2023-12-20T09:14:21;5.53;;;1.02;;
18857;SDS011;9558;50.178;8.370;2023-12-20T09:17:08;1.60;;;0.80;;
18857;SDS011;9558;50.178;8.370;2023-12-20T09:19:58;2.05;;;0.60;;
18857;SDS011;9558;50.178;8.370;2023-12-20T09:22:45;3.97;;;1.23;;
18857;SDS011;9558;50.178;8.370;2023-12-20T09:28:18;2.38;;;0.70;;
18857;SDS011;9558;50.178;8.370;2023-12-20T09:31:06;4.20;;;0.90;;
18857;SDS011;9558;50.178;8.370;2023-12-20T09:36:40;0.65;;;0.65;;
18857;SDS011;9558;50.178;8.370;2023-12-20T09:39:31;4.30;;;1.13;;
18857;SDS011;9558;50.178;8.370;2023-12-20T09:42:20;5.85;;;1.05;;
18857;SDS011;9558;50.178;8.370;2023-12-20T09:45:11;5.05;;;0.82;;
18857;SDS011;9558;50.178;8.370;2023-12-20T09:48:01;10.07;;;1.60;;
18857;SDS011;9558;50.178;8.370;2023-12-20T09:50:50;5.70;;;1.30;;
18857;SDS011;9558;50.178;8.370;2023-12-20T09:53:39;2.88;;;0.80;;
18857;SDS011;9558;50.178;8.370;2023-12-20T09:56:27;8.10;;;1.48;;
18857;SDS011;9558;50.178;8.370;2023-12-20T09:59:14;6.88;;;1.40;;
18857;SDS011;9558;50.178;8.370;2023-12-20T10:04:54;4.88;;;0.80;;
18857;SDS011;9558;50.178;8.370;2023-12-20T10:07:41;8.65;;;0.77;;
18857;SDS011;9558;50.178;8.370;2023-12-20T10:10:29;1.63;;;1.00;;
18857;SDS011;9558;50.178;8.370;2023-12-20T10:13:15;6.13;;;1.25;;
18857;SDS011;9558;50.178;8.370;2023-12-20T10:16:03;3.03;;;0.80;;
18857;SDS011;9558;50.178;8.370;2023-12-20T10:18:50;2.55;;;0.77;;
18857;SDS011;9558;50.178;8.370;2023-12-20T10:21:37;2.85;;;0.85;;
18857;SDS011;9558;50.178;8.370;2023-12-20T10:24:24;5.28;;;0.90;;
18857;SDS011;9558;50.178;8.370;2023-12-20T10:27:12;8.38;;;1.10;;
18857;SDS011;9558;50.178;8.370;2023-12-20T10:29:59;8.60;;;1.75;;
18857;SDS011;9558;50.178;8.370;2023-12-20T10:32:45;2.45;;;1.05;;
18857;SDS011;9558;50.178;8.370;2023-12-20T10:35:33;5.13;;;1.33;;
18857;SDS011;9558;50.178;8.370;2023-12-20T10:41:06;9.27;;;1.45;;
18857;SDS011;9558;50.178;8.370;2023-12-20T10:43:59;3.47;;;1.00;;
18857;SDS011;9558;50.178;8.370;2023-12-20T10:46:48;4.07;;;1.00;;
18857;SDS011;9558;50.178;8.370;2023-12-20T10:49:36;2.03;;;1.10;;
18857;SDS011;9558;50.178;8.370;2023-12-20T10:52:24;3.05;;;0.88;;
18857;SDS011;9558;50.178;8.370;2023-12-20T10:55:12;2.78;;;0.70;;
18857;SDS011;9558;50.178;8.370;2023-12-20T10:58:00;3.05;;;0.93;;
18857;SDS011;9558;50.178;8.370;2023-12-20T11:00:49;2.42;;;0.60;;
18857;SDS011;9558;50.178;8.370;2023-12-20T11:03:43;3.22;;;0.82;;
18857;SDS011;9558;50.178;8.370;2023-12-20T11:06:33;7.68;;;1.10;;
18857;SDS011;9558;50.178;8.370;2023-12-20T11:09:26;4.85;;;0.95;;
18857;SDS011;9558;50.178;8.370;2023-12-20T11:12:18;1.80;;;1.00;;
18857;SDS011;9558;50.178;8.370;2023-12-20T11:15:12;10.90;;;0.82;;
18857;SDS011;9558;50.178;8.370;2023-12-20T11:18:02;3.47;;;1.58;;
18857;SDS011;9558;50.178;8.370;2023-12-20T11:20:51;9.45;;;1.10;;
18857;SDS011;9558;50.178;8.370;2023-12-20T11:23:38;1.83;;;0.95;;
18857;SDS011;9558;50.178;8.370;2023-12-20T11:29:29;10.23;;;0.85;;
18857;SDS011;9558;50.178;8.370;2023-12-20T11:32:29;5.43;;;1.30;;
18857;SDS011;9558;50.178;8.370;2023-12-20T11:35:20;3.70;;;0.95;;
18857;SDS011;9558;50.178;8.370;2023-12-20T11:38:07;3.22;;;1.38;;
18857;SDS011;9558;50.178;8.370;2023-12-20T11:40:55;4.18;;;1.10;;
18857;SDS011;9558;50.178;8.370;2023-12-20T11:43:42;6.15;;;1.08;;
18857;SDS011;9558;50.178;8.370;2023-12-20T11:46:30;4.70;;;0.80;;
18857;SDS011;9558;50.178;8.370;2023-12-20T11:49:18;0.95;;;0.60;;
18857;SDS011;9558;50.178;8.370;2023-12-20T11:52:13;1.55;;;0.68;;
18857;SDS011;9558;50.178;8.370;2023-12-20T11:54:59;5.95;;;1.63;;
18857;SDS011;9558;50.178;8.370;2023-12-20T12:00:38;2.15;;;0.60;;
18857;SDS011;9558;50.178;8.370;2023-12-20T12:03:25;24.23;;;1.40;;
18857;SDS011;9558;50.178;8.370;2023-12-20T12:06:12;4.47;;;1.00;;
18857;SDS011;9558;50.178;8.370;2023-12-20T12:09:01;4.78;;;0.95;;
18857;SDS011;9558;50.178;8.370;2023-12-20T12:11:49;6.70;;;1.10;;
18857;SDS011;9558;50.178;8.370;2023-12-20T12:14:36;1.67;;;0.60;;
18857;SDS011;9558;50.178;8.370;2023-12-20T12:17:23;7.22;;;1.02;;
18857;SDS011;9558;50.178;8.370;2023-12-20T12:20:11;3.97;;;0.75;;
18857;SDS011;9558;50.178;8.370;2023-12-20T12:22:58;2.35;;;0.70;;
18857;SDS011;9558;50.178;8.370;2023-12-20T12:25:47;4.95;;;0.63;;
18857;SDS011;9558;50.178;8.370;2023-12-20T12:28:34;1.13;;;0.50;;
18857;SDS011;9558;50.178;8.370;2023-12-20T12:31:21;3.13;;;0.60;;
18857;SDS011;9558;50.178;8.370;2023-12-20T12:36:55;4.75;;;0.93;;
18857;SDS011;9558;50.178;8.370;2023-12-20T12:39:43;4.13;;;0.88;;
18857;SDS011;9558;50.178;8.370;2023-12-20T12:42:31;4.47;;;0.93;;
18857;SDS011;9558;50.178;8.370;2023-12-20T12:45:17;2.95;;;0.70;;
18857;SDS011;9558;50.178;8.370;2023-12-20T12:48:05;1.35;;;0.52;;
18857;SDS011;9558;50.178;8.370;2023-12-20T12:50:52;4.35;;;0.80;;
18857;SDS011;9558;50.178;8.370;2023-12-20T12:53:39;2.85;;;0.95;;
18857;SDS011;9558;50.178;8.370;2023-12-20T12:56:26;6.45;;;0.63;;
18857;SDS011;9558;50.178;8.370;2023-12-20T13:02:01;4.88;;;1.08;;
18857;SDS011;9558;50.178;8.370;2023-12-20T13:04:48;1.08;;;0.70;;
18857;SDS011;9558;50.178;8.370;2023-12-20T13:07:35;6.00;;;1.00;;
18857;SDS011;9558;50.178;8.370;2023-12-20T13:10:22;2.65;;;1.10;;
18857;SDS011;9558;50.178;8.370;2023-12-20T13:13:09;2.13;;;0.70;;
18857;SDS011;9558;50.178;8.370;2023-12-20T13:15:57;3.03;;;1.17;;
18857;SDS011;9558;50.178;8.370;2023-12-20T13:18:46;4.90;;;1.05;;
18857;SDS011;9558;50.178;8.370;2023-12-20T13:24:19;5.00;;;1.23;;
18857;SDS011;9558;50.178;8.370;2023-12-20T13:29:52;3.20;;;0.80;;
18857;SDS011;9558;50.178;8.370;2023-12-20T13:35:27;3.63;;;0.90;;
18857;SDS011;9558;50.178;8.370;2023-12-20T13:38:14;1.63;;;0.77;;
18857;SDS011;9558;50.178;8.370;2023-12-20T13:41:01;1.60;;;1.00;;
18857;SDS011;9558;50.178;8.370;2023-12-20T13:43:47;0.85;;;0.47;;
18857;SDS011;9558;50.178;8.370;2023-12-20T13:46:34;4.20;;;0.93;;
18857;SDS011;9558;50.178;8.370;2023-12-20T13:49:23;5.50;;;1.38;;
18857;SDS011;9558;50.178;8.370;2023-12-20T13:52:11;2.15;;;0.90;;
18857;SDS011;9558;50.178;8.370;2023-12-20T13:54:57;4.70;;;1.05;;
18857;SDS011;9558;50.178;8.370;2023-12-20T13:57:44;4.13;;;1.00;;
18857;SDS011;9558;50.178;8.370;2023-12-20T14:00:31;6.00;;;0.88;;
18857;SDS011;9558;50.178;8.370;2023-12-20T14:03:17;4.72;;;1.13;;
18857;SDS011;9558;50.178;8.370;2023-12-20T14:06:06;5.00;;;1.15;;
18857;SDS011;9558;50.178;8.370;2023-12-20T14:08:53;1.52;;;0.85;;
18857;SDS011;9558;50.178;8.370;2023-12-20T14:11:40;4.03;;;1.17;;
18857;SDS011;9558;50.178;8.370;2023-12-20T14:14:28;5.28;;;1.02;;
18857;SDS011;9558;50.178;8.370;2023-12-20T14:17:15;6.20;;;1.10;;
18857;SDS011;9558;50.178;8.370;2023-12-20T14:22:51;0.93;;;0.80;;
18857;SDS011;9558;50.178;8.370;2023-12-20T14:25:38;3.80;;;0.90;;
18857;SDS011;9558;50.178;8.370;2023-12-20T14:28:25;2.00;;;0.95;;
18857;SDS011;9558;50.178;8.370;2023-12-20T14:31:12;3.40;;;1.00;;
18857;SDS011;9558;50.178;8.370;2023-12-20T14:33:59;3.70;;;0.73;;
18857;SDS011;9558;50.178;8.370;2023-12-20T14:36:49;4.05;;;0.73;;
18857;SDS011;9558;50.178;8.370;2023-12-20T14:39:37;4.10;;;1.15;;
18857;SDS011;9558;50.178;8.370;2023-12-20T14:42:26;1.33;;;0.85;;
18857;SDS011;9558;50.178;8.370;2023-12-20T14:48:01;3.80;;;0.70;;
18857;SDS011;9558;50.178;8.370;2023-12-20T14:53:35;2.33;;;0.35;;
18857;SDS011;9558;50.178;8.370;2023-12-20T14:56:24;3.03;;;1.10;;
18857;SDS011;9558;50.178;8.370;2023-12-20T14:59:11;1.48;;;0.43;;
18857;SDS011;9558;50.178;8.370;2023-12-20T15:04:44;3.50;;;0.77;;
18857;SDS011;9558;50.178;8.370;2023-12-20T15:07:31;0.95;;;0.50;;
18857;SDS011;9558;50.178;8.370;2023-12-20T15:13:06;5.40;;;0.57;;
18857;SDS011;9558;50.178;8.370;2023-12-20T15:15:53;2.17;;;0.35;;
18857;SDS011;9558;50.178;8.370;2023-12-20T15:21:26;0.45;;;0.17;;
18857;SDS011;9558;50.178;8.370;2023-12-20T15:24:17;0.95;;;0.60;;
18857;SDS011;9558;50.178;8.370;2023-12-20T15:27:11;1.23;;;0.82;;
18857;SDS011;9558;50.178;8.370;2023-12-20T15:30:00;3.95;;;0.65;;
18857;SDS011;9558;50.178;8.370;2023-12-20T15:32:46;0.88;;;0.40;;
18857;SDS011;9558;50.178;8.370;2023-12-20T15:38:20;0.28;;;0.13;;
18857;SDS011;9558;50.178;8.370;2023-12-20T15:41:08;3.55;;;0.60;;
18857;SDS011;9558;50.178;8.370;2023-12-20T15:43:55;1.80;;;0.50;;
18857;SDS011;9558;50.178;8.370;2023-12-20T15:46:43;3.33;;;0.70;;
18857;SDS011;9558;50.178;8.370;2023-12-20T15:49:30;5.07;;;0.57;;
18857;SDS011;9558;50.178;8.370;2023-12-20T15:52:17;1.08;;;0.30;;
18857;SDS011;9558;50.178;8.370;2023-12-20T15:55:04;5.10;;;0.65;;
18857;SDS011;9558;50.178;8.370;2023-12-20T15:57:50;1.85;;;0.50;;
18857;SDS011;9558;50.178;8.370;2023-12-20T16:00:37;10.95;;;0.80;;
18857;SDS011;9558;50.178;8.370;2023-12-20T16:03:25;3.63;;;0.20;;
18857;SDS011;9558;50.178;8.370;2023-12-20T16:06:12;6.30;;;0.80;;
18857;SDS011;9558;50.178;8.370;2023-12-20T16:08:59;6.35;;;2.53;;
18857;SDS011;9558;50.178;8.370;2023-12-20T16:14:32;4.07;;;1.23;;
18857;SDS011;9558;50.178;8.370;2023-12-20T16:17:19;1.95;;;0.73;;
18857;SDS011;9558;50.178;8.370;2023-12-20T16:22:55;6.40;;;0.60;;
18857;SDS011;9558;50.178;8.370;2023-12-20T16:28:28;1.10;;;0.70;;
18857;SDS011;9558;50.178;8.370;2023-12-20T16:31:15;1.75;;;0.50;;
18857;SDS011;9558;50.178;8.370;2023-12-20T16:34:02;4.35;;;0.80;;
18857;SDS011;9558;50.178;8.370;2023-12-20T16:36:50;2.20;;;0.63;;
18857;SDS011;9558;50.178;8.370;2023-12-20T16:39:39;5.55;;;0.63;;
18857;SDS011;9558;50.178;8.370;2023-12-20T16:42:26;3.45;;;1.00;;
18857;SDS011;9558;50.178;8.370;2023-12-20T16:45:13;1.25;;;0.70;;
18857;SDS011;9558;50.178;8.370;2023-12-20T16:47:59;0.57;;;0.40;;
18857;SDS011;9558;50.178;8.370;2023-12-20T16:50:46;3.95;;;0.65;;
18857;SDS011;9558;50.178;8.370;2023-12-20T16:56:21;1.02;;;0.52;;
18857;SDS011;9558;50.178;8.370;2023-12-20T17:01:54;5.75;;;0.75;;
18857;SDS011;9558;50.178;8.370;2023-12-20T17:07:27;0.95;;;0.28;;
18857;SDS011;9558;50.178;8.370;2023-12-20T17:13:02;2.72;;;0.77;;
18857;SDS011;9558;50.178;8.370;2023-12-20T17:15:49;1.23;;;0.40;;
18857;SDS011;9558;50.178;8.370;2023-12-20T17:18:36;2.42;;;1.02;;
18857;SDS011;9558;50.178;8.370;2023-12-20T17:21:24;1.95;;;0.57;;
18857;SDS011;9558;50.178;8.370;2023-12-20T17:26:59;2.38;;;0.77;;
18857;SDS011;9558;50.178;8.370;2023-12-20T17:29:47;2.45;;;0.70;;
18857;SDS011;9558;50.178;8.370;2023-12-20T17:32:34;1.25;;;0.70;;
18857;SDS011;9558;50.178;8.370;2023-12-20T17:35:22;1.75;;;0.80;;
18857;SDS011;9558;50.178;8.370;2023-12-20T17:38:09;3.35;;;0.63;;
18857;SDS011;9558;50.178;8.370;2023-12-20T17:40:55;4.95;;;1.05;;
18857;SDS011;9558;50.178;8.370;2023-12-20T17:43:46;2.10;;;0.65;;
18857;SDS011;9558;50.178;8.370;2023-12-20T17:46:33;0.68;;;0.30;;
18857;SDS011;9558;50.178;8.370;2023-12-20T17:49:20;1.30;;;0.60;;
18857;SDS011;9558;50.178;8.370;2023-12-20T17:54:53;1.58;;;0.47;;
18857;SDS011;9558;50.178;8.370;2023-12-20T18:00:29;1.80;;;0.40;;
18857;SDS011;9558;50.178;8.370;2023-12-20T18:03:19;3.70;;;1.38;;
18857;SDS011;9558;50.178;8.370;2023-12-20T18:06:06;0.60;;;0.30;;
18857;SDS011;9558;50.178;8.370;2023-12-20T18:08:53;2.38;;;0.55;;
18857;SDS011;9558;50.178;8.370;2023-12-20T18:11:40;2.10;;;0.63;;
18857;SDS011;9558;50.178;8.370;2023-12-20T18:17:16;1.05;;;0.43;;
18857;SDS011;9558;50.178;8.370;2023-12-20T18:20:03;0.93;;;0.40;;
18857;SDS011;9558;50.178;8.370;2023-12-20T18:22:51;0.47;;;0.38;;
18857;SDS011;9558;50.178;8.370;2023-12-20T18:25:37;1.02;;;0.50;;
18857;SDS011;9558;50.178;8.370;2023-12-20T18:28:24;2.92;;;0.43;;
18857;SDS011;9558;50.178;8.370;2023-12-20T18:31:11;1.25;;;0.55;;
18857;SDS011;9558;50.178;8.370;2023-12-20T18:33:59;0.80;;;0.60;;
18857;SDS011;9558;50.178;8.370;2023-12-20T18:36:46;0.63;;;0.50;;
18857;SDS011;9558;50.178;8.370;2023-12-20T18:39:33;1.17;;;0.45;;
18857;SDS011;9558;50.178;8.370;2023-12-20T18:42:20;1.83;;;0.45;;
18857;SDS011;9558;50.178;8.370;2023-12-20T18:45:07;2.95;;;0.52;;
18857;SDS011;9558;50.178;8.370;2023-12-20T18:47:54;5.55;;;0.60;;
18857;SDS011;9558;50.178;8.370;2023-12-20T18:50:42;2.63;;;0.70;;
18857;SDS011;9558;50.178;8.370;2023-12-20T18:53:29;1.27;;;0.47;;
18857;SDS011;9558;50.178;8.370;2023-12-20T18:56:16;0.68;;;0.50;;
18857;SDS011;9558;50.178;8.370;2023-12-20T18:59:03;0.88;;;0.40;;
18857;SDS011;9558;50.178;8.370;2023-12-20T19:01:50;3.17;;;0.57;;
18857;SDS011;9558;50.178;8.370;2023-12-20T19:07:24;1.80;;;0.68;;
18857;SDS011;9558;50.178;8.370;2023-12-20T19:10:11;5.65;;;0.63;;
18857;SDS011;9558;50.178;8.370;2023-12-20T19:12:58;3.03;;;1.02;;